Weather at Guangzhou Baiyun International Airport

Public forecast

Using degrees Celsius for public forecast. Weather courtesy of forecast.io.

Current aviation weather report (METAR) for Guangzhou Baiyun International Airport

Retrieved 2021/07/30 00:00 UTC (17 minutes ago):

ZGGG 300000Z 07003MPS 030V100 7000 SCT026 SCT040 29/26 Q1001 NOSIG

Aviation forecast (TAF) for Guangzhou Baiyun International Airport

Forecast is more than 12 hours old.

Retrieved 2021/07/20 18:02 UTC (9 days ago):

TAF ZGGG 201520Z 2018/2118 11004MPS 8000 BKN040 TX30/2107Z TN25/2022Z TEMPO 2020/2102 2500 SHRA SCT011 FEW026CB BKN030 TEMPO 2102/2108 2500 TSRA SCT011 SCT030CB BKN033